sensor_id;sensor_type;location;lat;lon;timestamp;pressure;altitude;pressure_sealevel;temperature;humidity
60832;BME280;46665;51.558;-0.448;2023-12-07T00:00:40;156349.72;;;3.65;100.00
60832;BME280;46665;51.558;-0.448;2023-12-07T00:03:24;156352.28;;;3.66;100.00
60832;BME280;46665;51.558;-0.448;2023-12-07T00:06:08;156353.56;;;3.67;100.00
60832;BME280;46665;51.558;-0.448;2023-12-07T00:08:53;156356.16;;;3.68;100.00
60832;BME280;46665;51.558;-0.448;2023-12-07T00:11:36;156365.16;;;3.72;100.00
60832;BME280;46665;51.558;-0.448;2023-12-07T00:14:20;156357.44;;;3.68;100.00
60832;BME280;46665;51.558;-0.448;2023-12-07T00:17:04;156361.34;;;3.70;100.00
60832;BME280;46665;51.558;-0.448;2023-12-07T00:19:50;156370.34;;;3.74;100.00
60832;BME280;46665;51.558;-0.448;2023-12-07T00:22:37;156357.44;;;3.68;100.00
60832;BME280;46665;51.558;-0.448;2023-12-07T00:25:21;156370.34;;;3.74;100.00
60832;BME280;46665;51.558;-0.448;2023-12-07T00:28:06;156376.78;;;3.76;100.00
60832;BME280;46665;51.558;-0.448;2023-12-07T00:30:50;156381.97;;;3.78;100.00
60832;BME280;46665;51.558;-0.448;2023-12-07T00:33:34;156379.34;;;3.77;100.00
60832;BME280;46665;51.558;-0.448;2023-12-07T00:36:18;156379.34;;;3.77;100.00
60832;BME280;46665;51.558;-0.448;2023-12-07T00:39:02;156380.69;;;3.78;100.00
60832;BME280;46665;51.558;-0.448;2023-12-07T00:41:47;156385.78;;;3.80;100.00
60832;BME280;46665;51.558;-0.448;2023-12-07T00:44:31;156403.84;;;3.87;100.00
60832;BME280;46665;51.558;-0.448;2023-12-07T00:47:15;156392.28;;;3.82;100.00
60832;BME280;46665;51.558;-0.448;2023-12-07T00:49:59;156416.75;;;3.92;100.00
60832;BME280;46665;51.558;-0.448;2023-12-07T00:52:43;156412.91;;;3.90;100.00
60832;BME280;46665;51.558;-0.448;2023-12-07T00:55:27;156429.66;;;3.97;100.00
60832;BME280;46665;51.558;-0.448;2023-12-07T00:58:11;156437.44;;;4.00;100.00
60832;BME280;46665;51.558;-0.448;2023-12-07T01:00:55;156445.16;;;4.03;100.00
60832;BME280;46665;51.558;-0.448;2023-12-07T01:03:39;156446.44;;;4.04;100.00
60832;BME280;46665;51.558;-0.448;2023-12-07T01:06:24;156450.34;;;4.05;100.00
60832;BME280;46665;51.558;-0.448;2023-12-07T01:09:08;156463.22;;;4.10;100.00
60832;BME280;46665;51.558;-0.448;2023-12-07T01:11:57;156465.78;;;4.11;100.00
60832;BME280;46665;51.558;-0.448;2023-12-07T01:14:42;156465.78;;;4.11;100.00
60832;BME280;46665;51.558;-0.448;2023-12-07T01:17:26;156470.97;;;4.13;100.00
60832;BME280;46665;51.558;-0.448;2023-12-07T01:20:10;156467.06;;;4.12;100.00
60832;BME280;46665;51.558;-0.448;2023-12-07T01:22:56;156463.22;;;4.10;100.00
60832;BME280;46665;51.558;-0.448;2023-12-07T01:25:40;156470.97;;;4.13;100.00
60832;BME280;46665;51.558;-0.448;2023-12-07T01:28:24;156492.88;;;4.22;100.00
60832;BME280;46665;51.558;-0.448;2023-12-07T01:31:08;156492.88;;;4.22;100.00
60832;BME280;46665;51.558;-0.448;2023-12-07T01:33:52;156494.16;;;4.23;100.00
60832;BME280;46665;51.558;-0.448;2023-12-07T01:36:36;156509.66;;;4.29;100.00
60832;BME280;46665;51.558;-0.448;2023-12-07T01:39:20;156503.22;;;4.26;100.00
60832;BME280;46665;51.558;-0.448;2023-12-07T01:42:05;156507.06;;;4.28;100.00
60832;BME280;46665;51.558;-0.448;2023-12-07T01:44:48;156514.81;;;4.31;100.00
60832;BME280;46665;51.558;-0.448;2023-12-07T01:47:33;156525.13;;;4.35;100.00
60832;BME280;46665;51.558;-0.448;2023-12-07T01:50:19;156527.72;;;4.36;100.00
60832;BME280;46665;51.558;-0.448;2023-12-07T01:53:08;156532.91;;;4.38;100.00
60832;BME280;46665;51.558;-0.448;2023-12-07T01:55:53;156539.34;;;4.41;100.00
60832;BME280;46665;51.558;-0.448;2023-12-07T01:58:37;156536.75;;;4.40;100.00
60832;BME280;46665;51.558;-0.448;2023-12-07T02:01:22;156543.19;;;4.42;100.00
60832;BME280;46665;51.558;-0.448;2023-12-07T02:04:06;156548.38;;;4.44;100.00
60832;BME280;46665;51.558;-0.448;2023-12-07T02:06:54;156561.28;;;4.49;100.00
60832;BME280;46665;51.558;-0.448;2023-12-07T02:09:40;156567.72;;;4.52;100.00
60832;BME280;46665;51.558;-0.448;2023-12-07T02:12:24;156562.56;;;4.50;100.00
60832;BME280;46665;51.558;-0.448;2023-12-07T02:15:09;156569.00;;;4.52;100.00
60832;BME280;46665;51.558;-0.448;2023-12-07T02:21:21;156585.78;;;4.59;100.00
60832;BME280;46665;51.558;-0.448;2023-12-07T02:24:11;156576.72;;;4.55;100.00
60832;BME280;46665;51.558;-0.448;2023-12-07T02:26:55;156585.78;;;4.59;100.00
60832;BME280;46665;51.558;-0.448;2023-12-07T02:29:39;156588.34;;;4.60;100.00
60832;BME280;46665;51.558;-0.448;2023-12-07T02:32:23;156596.09;;;4.63;100.00
60832;BME280;46665;51.558;-0.448;2023-12-07T02:35:08;156597.41;;;4.64;100.00
60832;BME280;46665;51.558;-0.448;2023-12-07T02:37:54;156603.88;;;4.66;100.00
60832;BME280;46665;51.558;-0.448;2023-12-07T02:40:39;156605.16;;;4.67;100.00
60832;BME280;46665;51.558;-0.448;2023-12-07T02:43:24;156607.72;;;4.68;100.00
60832;BME280;46665;51.558;-0.448;2023-12-07T02:46:09;156607.72;;;4.68;100.00
60832;BME280;46665;51.558;-0.448;2023-12-07T02:48:52;156616.78;;;4.71;100.00
60832;BME280;46665;51.558;-0.448;2023-12-07T02:51:36;156620.63;;;4.73;100.00
60832;BME280;46665;51.558;-0.448;2023-12-07T02:54:20;156620.63;;;4.73;100.00
60832;BME280;46665;51.558;-0.448;2023-12-07T02:57:04;156623.22;;;4.74;100.00
60832;BME280;46665;51.558;-0.448;2023-12-07T02:59:48;156628.34;;;4.76;100.00
60832;BME280;46665;51.558;-0.448;2023-12-07T03:02:36;156628.34;;;4.76;100.00
60832;BME280;46665;51.558;-0.448;2023-12-07T03:05:20;156630.97;;;4.77;100.00
60832;BME280;46665;51.558;-0.448;2023-12-07T03:08:06;156628.34;;;4.76;100.00
60832;BME280;46665;51.558;-0.448;2023-12-07T03:10:51;156627.06;;;4.75;100.00
60832;BME280;46665;51.558;-0.448;2023-12-07T03:13:34;156630.97;;;4.77;100.00
60832;BME280;46665;51.558;-0.448;2023-12-07T03:16:18;156625.78;;;4.75;100.00
60832;BME280;46665;51.558;-0.448;2023-12-07T03:19:02;156624.50;;;4.74;100.00
60832;BME280;46665;51.558;-0.448;2023-12-07T03:21:46;156624.50;;;4.74;100.00
60832;BME280;46665;51.558;-0.448;2023-12-07T03:24:30;156616.78;;;4.71;100.00
60832;BME280;46665;51.558;-0.448;2023-12-07T03:27:14;156627.06;;;4.75;100.00
60832;BME280;46665;51.558;-0.448;2023-12-07T03:29:58;156624.50;;;4.74;100.00
60832;BME280;46665;51.558;-0.448;2023-12-07T03:32:42;156618.06;;;4.72;100.00
60832;BME280;46665;51.558;-0.448;2023-12-07T03:35:26;156627.06;;;4.75;100.00
60832;BME280;46665;51.558;-0.448;2023-12-07T03:38:10;156620.63;;;4.73;100.00
60832;BME280;46665;51.558;-0.448;2023-12-07T03:40:54;156624.50;;;4.74;100.00
60832;BME280;46665;51.558;-0.448;2023-12-07T03:43:38;156632.25;;;4.77;100.00
60832;BME280;46665;51.558;-0.448;2023-12-07T03:46:22;156624.50;;;4.74;100.00
60832;BME280;46665;51.558;-0.448;2023-12-07T03:49:06;156616.78;;;4.71;100.00
60832;BME280;46665;51.558;-0.448;2023-12-07T03:51:50;156623.22;;;4.74;100.00
60832;BME280;46665;51.558;-0.448;2023-12-07T03:54:34;156627.06;;;4.75;100.00
60832;BME280;46665;51.558;-0.448;2023-12-07T03:57:18;156627.06;;;4.75;100.00
60832;BME280;46665;51.558;-0.448;2023-12-07T04:00:02;156618.06;;;4.72;100.00
60832;BME280;46665;51.558;-0.448;2023-12-07T04:02:48;156620.63;;;4.73;100.00
60832;BME280;46665;51.558;-0.448;2023-12-07T04:05:32;156620.63;;;4.73;100.00
60832;BME280;46665;51.558;-0.448;2023-12-07T04:08:17;156615.44;;;4.71;100.00
60832;BME280;46665;51.558;-0.448;2023-12-07T04:11:01;156616.78;;;4.71;100.00
60832;BME280;46665;51.558;-0.448;2023-12-07T04:13:45;156616.78;;;4.71;100.00
60832;BME280;46665;51.558;-0.448;2023-12-07T04:16:29;156609.00;;;4.68;100.00
60832;BME280;46665;51.558;-0.448;2023-12-07T04:19:14;156616.78;;;4.71;100.00
60832;BME280;46665;51.558;-0.448;2023-12-07T04:21:58;156621.91;;;4.73;100.00
60832;BME280;46665;51.558;-0.448;2023-12-07T04:24:42;156620.63;;;4.73;100.00
60832;BME280;46665;51.558;-0.448;2023-12-07T04:27:26;156618.06;;;4.72;100.00
60832;BME280;46665;51.558;-0.448;2023-12-07T04:30:10;156630.97;;;4.77;100.00
60832;BME280;46665;51.558;-0.448;2023-12-07T04:32:54;156634.84;;;4.78;100.00
60832;BME280;46665;51.558;-0.448;2023-12-07T04:35:38;156624.50;;;4.74;100.00
60832;BME280;46665;51.558;-0.448;2023-12-07T04:38:22;156627.06;;;4.75;100.00
60832;BME280;46665;51.558;-0.448;2023-12-07T04:41:06;156630.97;;;4.77;100.00
60832;BME280;46665;51.558;-0.448;2023-12-07T04:43:50;156643.88;;;4.82;100.00
60832;BME280;46665;51.558;-0.448;2023-12-07T04:46:34;156649.03;;;4.84;100.00
60832;BME280;46665;51.558;-0.448;2023-12-07T04:49:19;156661.94;;;4.89;100.00
60832;BME280;46665;51.558;-0.448;2023-12-07T04:52:03;156647.75;;;4.84;100.00
60832;BME280;46665;51.558;-0.448;2023-12-07T04:54:47;156649.03;;;4.84;100.00
60832;BME280;46665;51.558;-0.448;2023-12-07T04:57:36;156652.88;;;4.86;100.00
60832;BME280;46665;51.558;-0.448;2023-12-07T05:00:20;156652.88;;;4.86;100.00
60832;BME280;46665;51.558;-0.448;2023-12-07T05:03:05;156649.03;;;4.84;100.00
60832;BME280;46665;51.558;-0.448;2023-12-07T05:05:49;156646.44;;;4.83;100.00
60832;BME280;46665;51.558;-0.448;2023-12-07T05:08:33;156654.22;;;4.86;100.00
60832;BME280;46665;51.558;-0.448;2023-12-07T05:11:17;156650.31;;;4.85;100.00
60832;BME280;46665;51.558;-0.448;2023-12-07T05:14:01;156656.78;;;4.87;100.00
60832;BME280;46665;51.558;-0.448;2023-12-07T05:16:45;156645.16;;;4.83;100.00
60832;BME280;46665;51.558;-0.448;2023-12-07T05:19:31;156646.44;;;4.83;100.00
60832;BME280;46665;51.558;-0.448;2023-12-07T05:22:15;156647.75;;;4.84;100.00
60832;BME280;46665;51.558;-0.448;2023-12-07T05:24:59;156656.78;;;4.87;100.00
60832;BME280;46665;51.558;-0.448;2023-12-07T05:27:43;156646.44;;;4.83;100.00
60832;BME280;46665;51.558;-0.448;2023-12-07T05:30:27;156651.59;;;4.85;100.00
60832;BME280;46665;51.558;-0.448;2023-12-07T05:33:12;156639.97;;;4.81;100.00
60832;BME280;46665;51.558;-0.448;2023-12-07T05:35:56;156645.16;;;4.83;100.00
60832;BME280;46665;51.558;-0.448;2023-12-07T05:38:40;156659.34;;;4.88;100.00
60832;BME280;46665;51.558;-0.448;2023-12-07T05:41:24;156654.22;;;4.86;100.00
60832;BME280;46665;51.558;-0.448;2023-12-07T05:44:09;156651.59;;;4.85;100.00
60832;BME280;46665;51.558;-0.448;2023-12-07T05:46:53;156643.88;;;4.82;100.00
60832;BME280;46665;51.558;-0.448;2023-12-07T05:49:38;156650.31;;;4.85;100.00
60832;BME280;46665;51.558;-0.448;2023-12-07T05:52:22;156661.94;;;4.89;100.00
60832;BME280;46665;51.558;-0.448;2023-12-07T05:55:06;156661.94;;;4.89;100.00
60832;BME280;46665;51.558;-0.448;2023-12-07T05:57:50;156665.78;;;4.91;100.00
60832;BME280;46665;51.558;-0.448;2023-12-07T06:00:34;156665.78;;;4.91;100.00
60832;BME280;46665;51.558;-0.448;2023-12-07T06:03:18;156670.97;;;4.93;100.00
60832;BME280;46665;51.558;-0.448;2023-12-07T06:06:02;156660.66;;;4.89;100.00
60832;BME280;46665;51.558;-0.448;2023-12-07T06:08:46;156676.13;;;4.95;100.00
60832;BME280;46665;51.558;-0.448;2023-12-07T06:11:30;156674.84;;;4.94;100.00
60832;BME280;46665;51.558;-0.448;2023-12-07T06:14:15;156676.13;;;4.95;100.00
60832;BME280;46665;51.558;-0.448;2023-12-07T06:16:58;156683.88;;;4.98;100.00
60832;BME280;46665;51.558;-0.448;2023-12-07T06:19:45;156689.03;;;5.00;100.00
60832;BME280;46665;51.558;-0.448;2023-12-07T06:22:29;156685.16;;;4.98;100.00
60832;BME280;46665;51.558;-0.448;2023-12-07T06:25:14;156687.75;;;4.99;100.00
60832;BME280;46665;51.558;-0.448;2023-12-07T06:28:00;156698.06;;;5.04;100.00
60832;BME280;46665;51.558;-0.448;2023-12-07T06:30:44;156700.66;;;5.05;100.00
60832;BME280;46665;51.558;-0.448;2023-12-07T06:33:28;156699.38;;;5.04;100.00
60832;BME280;46665;51.558;-0.448;2023-12-07T06:36:18;156721.31;;;5.13;100.00
60832;BME280;46665;51.558;-0.448;2023-12-07T06:39:02;156726.47;;;5.15;100.00
60832;BME280;46665;51.558;-0.448;2023-12-07T06:41:49;156707.13;;;5.07;100.00
60832;BME280;46665;51.558;-0.448;2023-12-07T06:44:33;156710.97;;;5.09;100.00
60832;BME280;46665;51.558;-0.448;2023-12-07T06:47:17;156721.31;;;5.13;100.00
60832;BME280;46665;51.558;-0.448;2023-12-07T06:50:01;156713.56;;;5.10;100.00
60832;BME280;46665;51.558;-0.448;2023-12-07T06:52:46;156716.13;;;5.11;100.00
60832;BME280;46665;51.558;-0.448;2023-12-07T06:55:30;156734.22;;;5.18;100.00
60832;BME280;46665;51.558;-0.448;2023-12-07T06:58:15;156730.31;;;5.16;100.00
60832;BME280;46665;51.558;-0.448;2023-12-07T07:00:59;156718.75;;;5.12;100.00
60832;BME280;46665;51.558;-0.448;2023-12-07T07:03:43;156726.47;;;5.15;100.00
60832;BME280;46665;51.558;-0.448;2023-12-07T07:06:27;156722.59;;;5.13;100.00
60832;BME280;46665;51.558;-0.448;2023-12-07T07:09:11;156731.66;;;5.17;100.00
60832;BME280;46665;51.558;-0.448;2023-12-07T07:11:56;156727.75;;;5.15;100.00
60832;BME280;46665;51.558;-0.448;2023-12-07T07:14:41;156735.50;;;5.18;100.00
60832;BME280;46665;51.558;-0.448;2023-12-07T07:17:25;156741.97;;;5.21;100.00
60832;BME280;46665;51.558;-0.448;2023-12-07T07:20:10;156743.25;;;5.21;100.00
60832;BME280;46665;51.558;-0.448;2023-12-07T07:22:54;156736.78;;;5.19;100.00
60832;BME280;46665;51.558;-0.448;2023-12-07T07:25:38;156748.41;;;5.24;100.00
60832;BME280;46665;51.558;-0.448;2023-12-07T07:28:22;156745.84;;;5.22;100.00
60832;BME280;46665;51.558;-0.448;2023-12-07T07:31:06;156741.97;;;5.21;100.00
60832;BME280;46665;51.558;-0.448;2023-12-07T07:33:50;156740.69;;;5.20;100.00
60832;BME280;46665;51.558;-0.448;2023-12-07T07:36:34;156744.56;;;5.22;100.00
60832;BME280;46665;51.558;-0.448;2023-12-07T07:39:18;156748.41;;;5.24;100.00
60832;BME280;46665;51.558;-0.448;2023-12-07T07:42:02;156749.75;;;5.24;100.00
60832;BME280;46665;51.558;-0.448;2023-12-07T07:44:46;156751.03;;;5.25;100.00
60832;BME280;46665;51.558;-0.448;2023-12-07T07:47:30;156756.19;;;5.27;100.00
60832;BME280;46665;51.558;-0.448;2023-12-07T07:50:14;156760.03;;;5.28;100.00
60832;BME280;46665;51.558;-0.448;2023-12-07T07:52:58;156752.31;;;5.25;100.00
60832;BME280;46665;51.558;-0.448;2023-12-07T07:55:42;156760.03;;;5.28;100.00
60832;BME280;46665;51.558;-0.448;2023-12-07T07:58:26;156743.25;;;5.21;100.00
60832;BME280;46665;51.558;-0.448;2023-12-07T08:01:10;156762.66;;;5.29;100.00
60832;BME280;46665;51.558;-0.448;2023-12-07T08:03:54;156765.22;;;5.30;100.00
60832;BME280;46665;51.558;-0.448;2023-12-07T08:06:38;156772.94;;;5.33;100.00
60832;BME280;46665;51.558;-0.448;2023-12-07T08:09:22;156779.41;;;5.36;100.00
60832;BME280;46665;51.558;-0.448;2023-12-07T08:12:07;156771.66;;;5.33;100.00
60832;BME280;46665;51.558;-0.448;2023-12-07T08:14:52;156783.28;;;5.37;100.00
60832;BME280;46665;51.558;-0.448;2023-12-07T08:17:40;156785.84;;;5.38;100.00
60832;BME280;46665;51.558;-0.448;2023-12-07T08:20:25;156780.69;;;5.36;100.00
60832;BME280;46665;51.558;-0.448;2023-12-07T08:23:09;156794.91;;;5.42;100.00
60832;BME280;46665;51.558;-0.448;2023-12-07T08:25:54;156783.28;;;5.37;100.00
60832;BME280;46665;51.558;-0.448;2023-12-07T08:28:41;156791.03;;;5.40;100.00
60832;BME280;46665;51.558;-0.448;2023-12-07T08:31:25;156787.13;;;5.39;100.00
60832;BME280;46665;51.558;-0.448;2023-12-07T08:34:09;156791.03;;;5.40;100.00
60832;BME280;46665;51.558;-0.448;2023-12-07T08:36:53;156791.03;;;5.40;100.00
60832;BME280;46665;51.558;-0.448;2023-12-07T08:39:37;156801.38;;;5.45;100.00
60832;BME280;46665;51.558;-0.448;2023-12-07T08:42:21;156798.78;;;5.43;100.00
60832;BME280;46665;51.558;-0.448;2023-12-07T08:45:05;156791.03;;;5.40;100.00
60832;BME280;46665;51.558;-0.448;2023-12-07T08:47:50;156792.31;;;5.41;100.00
60832;BME280;46665;51.558;-0.448;2023-12-07T08:50:34;156797.50;;;5.43;100.00
60832;BME280;46665;51.558;-0.448;2023-12-07T08:53:18;156806.50;;;5.47;100.00
60832;BME280;46665;51.558;-0.448;2023-12-07T08:56:02;156810.41;;;5.48;100.00
60832;BME280;46665;51.558;-0.448;2023-12-07T08:58:46;156807.84;;;5.47;100.00
60832;BME280;46665;51.558;-0.448;2023-12-07T09:01:30;156823.31;;;5.53;100.00
60832;BME280;46665;51.558;-0.448;2023-12-07T09:04:16;156838.78;;;5.59;100.00
60832;BME280;46665;51.558;-0.448;2023-12-07T09:07:01;156845.25;;;5.62;100.00
60832;BME280;46665;51.558;-0.448;2023-12-07T09:09:45;156845.25;;;5.62;100.00
60832;BME280;46665;51.558;-0.448;2023-12-07T09:12:30;156853.03;;;5.65;100.00
60832;BME280;46665;51.558;-0.448;2023-12-07T09:15:14;156862.06;;;5.69;100.00
60832;BME280;46665;51.558;-0.448;2023-12-07T09:17:58;156859.50;;;5.68;100.00
60832;BME280;46665;51.558;-0.448;2023-12-07T09:20:42;156868.50;;;5.71;100.00
60832;BME280;46665;51.558;-0.448;2023-12-07T09:23:29;156873.69;;;5.73;100.00
60832;BME280;46665;51.558;-0.448;2023-12-07T09:26:13;156886.59;;;5.78;100.00
60832;BME280;46665;51.558;-0.448;2023-12-07T09:28:57;156904.69;;;5.85;100.00
60832;BME280;46665;51.558;-0.448;2023-12-07T09:31:41;156887.88;;;5.79;100.00
60832;BME280;46665;51.558;-0.448;2023-12-07T09:34:25;156899.50;;;5.83;100.00
60832;BME280;46665;51.558;-0.448;2023-12-07T09:37:09;156916.31;;;5.90;100.00
60832;BME280;46665;51.558;-0.448;2023-12-07T09:39:54;156922.78;;;5.93;100.00
60832;BME280;46665;51.558;-0.448;2023-12-07T09:42:37;156934.41;;;5.97;100.00
60832;BME280;46665;51.558;-0.448;2023-12-07T09:45:23;156924.06;;;5.93;100.00
60832;BME280;46665;51.558;-0.448;2023-12-07T09:48:07;156935.75;;;5.98;100.00
60832;BME280;46665;51.558;-0.448;2023-12-07T09:50:52;156938.31;;;5.99;100.00
60832;BME280;46665;51.558;-0.448;2023-12-07T09:53:38;156942.19;;;6.00;100.00
60832;BME280;46665;51.558;-0.448;2023-12-07T09:56:23;156974.50;;;6.13;100.00
60832;BME280;46665;51.558;-0.448;2023-12-07T09:59:07;156964.13;;;6.09;100.00
60832;BME280;46665;51.558;-0.448;2023-12-07T10:01:51;156958.97;;;6.07;100.00
60832;BME280;46665;51.558;-0.448;2023-12-07T10:04:35;156965.41;;;6.10;100.00
60832;BME280;46665;51.558;-0.448;2023-12-07T10:07:32;156974.50;;;6.13;100.00
60832;BME280;46665;51.558;-0.448;2023-12-07T10:10:18;157002.88;;;6.24;100.00
60832;BME280;46665;51.558;-0.448;2023-12-07T10:13:02;157001.59;;;6.24;100.00
60832;BME280;46665;51.558;-0.448;2023-12-07T10:15:47;156980.94;;;6.16;100.00
60832;BME280;46665;51.558;-0.448;2023-12-07T10:18:48;156989.97;;;6.19;100.00
60832;BME280;46665;51.558;-0.448;2023-12-07T10:21:34;156978.34;;;6.15;100.00
60832;BME280;46665;51.558;-0.448;2023-12-07T10:24:19;156988.69;;;6.19;100.00
60832;BME280;46665;51.558;-0.448;2023-12-07T10:27:03;156992.59;;;6.20;100.00
60832;BME280;46665;51.558;-0.448;2023-12-07T10:29:50;157009.34;;;6.27;100.00
60832;BME280;46665;51.558;-0.448;2023-12-07T10:32:38;157002.88;;;6.24;100.00
60832;BME280;46665;51.558;-0.448;2023-12-07T10:35:22;156997.72;;;6.22;100.00
60832;BME280;46665;51.558;-0.448;2023-12-07T10:38:07;156997.72;;;6.22;100.00
60832;BME280;46665;51.558;-0.448;2023-12-07T10:41:04;156992.59;;;6.20;100.00
60832;BME280;46665;51.558;-0.448;2023-12-07T10:43:49;157033.91;;;6.37;100.00
60832;BME280;46665;51.558;-0.448;2023-12-07T10:46:35;157014.53;;;6.29;100.00
60832;BME280;46665;51.558;-0.448;2023-12-07T10:49:21;157023.56;;;6.33;100.00
60832;BME280;46665;51.558;-0.448;2023-12-07T10:52:12;157022.28;;;6.32;100.00
60832;BME280;46665;51.558;-0.448;2023-12-07T10:55:02;157033.91;;;6.37;100.00
60832;BME280;46665;51.558;-0.448;2023-12-07T10:57:47;157044.25;;;6.41;100.00
60832;BME280;46665;51.558;-0.448;2023-12-07T11:00:31;157048.09;;;6.42;100.00
60832;BME280;46665;51.558;-0.448;2023-12-07T11:03:17;157059.75;;;6.47;100.00
60832;BME280;46665;51.558;-0.448;2023-12-07T11:06:01;157064.94;;;6.49;100.00
60832;BME280;46665;51.558;-0.448;2023-12-07T11:09:00;157059.75;;;6.47;100.00
60832;BME280;46665;51.558;-0.448;2023-12-07T11:11:52;157066.22;;;6.49;100.00
60832;BME280;46665;51.558;-0.448;2023-12-07T11:14:39;157064.94;;;6.49;100.00
60832;BME280;46665;51.558;-0.448;2023-12-07T11:17:23;157066.22;;;6.49;100.00
60832;BME280;46665;51.558;-0.448;2023-12-07T11:20:07;157079.13;;;6.55;100.00
60832;BME280;46665;51.558;-0.448;2023-12-07T11:22:51;157072.66;;;6.52;100.00
60832;BME280;46665;51.558;-0.448;2023-12-07T11:25:37;157072.66;;;6.52;100.00
60832;BME280;46665;51.558;-0.448;2023-12-07T11:28:34;157063.66;;;6.48;100.00
60832;BME280;46665;51.558;-0.448;2023-12-07T11:31:21;157080.41;;;6.55;100.00
60832;BME280;46665;51.558;-0.448;2023-12-07T11:34:08;157083.03;;;6.56;100.00
60832;BME280;46665;51.558;-0.448;2023-12-07T11:36:57;157080.41;;;6.55;100.00
60832;BME280;46665;51.558;-0.448;2023-12-07T11:39:42;157066.22;;;6.49;100.00
60832;BME280;46665;51.558;-0.448;2023-12-07T11:42:26;157073.94;;;6.53;100.00
60832;BME280;46665;51.558;-0.448;2023-12-07T11:45:11;157080.41;;;6.55;100.00
60832;BME280;46665;51.558;-0.448;2023-12-07T11:48:09;157062.31;;;6.48;100.00
60832;BME280;46665;51.558;-0.448;2023-12-07T11:53:41;157089.47;;;6.59;100.00
60832;BME280;46665;51.558;-0.448;2023-12-07T11:56:25;157085.59;;;6.57;100.00
60832;BME280;46665;51.558;-0.448;2023-12-07T11:59:09;157075.22;;;6.53;100.00
60832;BME280;46665;51.558;-0.448;2023-12-07T12:01:53;157083.03;;;6.56;100.00
60832;BME280;46665;51.558;-0.448;2023-12-07T12:04:37;157084.31;;;6.57;100.00
60832;BME280;46665;51.558;-0.448;2023-12-07T12:07:23;157079.13;;;6.55;100.00
60832;BME280;46665;51.558;-0.448;2023-12-07T12:10:09;157104.97;;;6.65;100.00
60832;BME280;46665;51.558;-0.448;2023-12-07T12:12:53;157099.78;;;6.63;100.00
60832;BME280;46665;51.558;-0.448;2023-12-07T12:15:38;157077.84;;;6.54;100.00
60832;BME280;46665;51.558;-0.448;2023-12-07T12:18:23;157089.47;;;6.59;100.00
60832;BME280;46665;51.558;-0.448;2023-12-07T12:21:10;157094.63;;;6.61;100.00
60832;BME280;46665;51.558;-0.448;2023-12-07T12:23:53;157088.16;;;6.58;100.00
60832;BME280;46665;51.558;-0.448;2023-12-07T12:26:41;157106.25;;;6.65;100.00
60832;BME280;46665;51.558;-0.448;2023-12-07T12:29:26;157095.94;;;6.61;100.00
60832;BME280;46665;51.558;-0.448;2023-12-07T12:32:10;157111.44;;;6.67;100.00
60832;BME280;46665;51.558;-0.448;2023-12-07T12:34:54;157108.88;;;6.66;100.00
60832;BME280;46665;51.558;-0.448;2023-12-07T12:37:39;157114.03;;;6.68;100.00
60832;BME280;46665;51.558;-0.448;2023-12-07T12:40:23;157103.69;;;6.64;100.00
60832;BME280;46665;51.558;-0.448;2023-12-07T12:43:11;157093.34;;;6.60;100.00
60832;BME280;46665;51.558;-0.448;2023-12-07T12:45:56;157079.13;;;6.55;100.00
60832;BME280;46665;51.558;-0.448;2023-12-07T12:48:55;157094.63;;;6.61;100.00
60832;BME280;46665;51.558;-0.448;2023-12-07T12:51:39;157084.31;;;6.57;100.00
60832;BME280;46665;51.558;-0.448;2023-12-07T12:54:30;157067.50;;;6.50;100.00
60832;BME280;46665;51.558;-0.448;2023-12-07T12:57:15;157077.84;;;6.54;100.00
60832;BME280;46665;51.558;-0.448;2023-12-07T13:00:00;157053.28;;;6.44;100.00
60832;BME280;46665;51.558;-0.448;2023-12-07T13:02:45;157030.00;;;6.35;100.00
60832;BME280;46665;51.558;-0.448;2023-12-07T13:05:30;157017.09;;;6.30;100.00
60832;BME280;46665;51.558;-0.448;2023-12-07T13:08:14;156999.03;;;6.23;100.00
60832;BME280;46665;51.558;-0.448;2023-12-07T13:10:58;156995.16;;;6.21;100.00
60832;BME280;46665;51.558;-0.448;2023-12-07T13:13:42;156989.97;;;6.19;100.00
60832;BME280;46665;51.558;-0.448;2023-12-07T13:16:26;156975.78;;;6.14;100.00
60832;BME280;46665;51.558;-0.448;2023-12-07T13:19:10;156956.41;;;6.06;100.00
60832;BME280;46665;51.558;-0.448;2023-12-07T13:21:54;156960.25;;;6.07;100.00
60832;BME280;46665;51.558;-0.448;2023-12-07T13:24:38;156948.66;;;6.03;100.00
60832;BME280;46665;51.558;-0.448;2023-12-07T13:27:22;156942.19;;;6.00;100.00
60832;BME280;46665;51.558;-0.448;2023-12-07T13:30:06;156937.03;;;5.98;100.00
60832;BME280;46665;51.558;-0.448;2023-12-07T13:32:50;156931.84;;;5.96;100.00
60832;BME280;46665;51.558;-0.448;2023-12-07T13:35:35;156908.53;;;5.87;100.00
60832;BME280;46665;51.558;-0.448;2023-12-07T13:38:19;156907.25;;;5.86;100.00
60832;BME280;46665;51.558;-0.448;2023-12-07T13:41:04;156900.78;;;5.84;100.00
60832;BME280;46665;51.558;-0.448;2023-12-07T13:43:48;156894.34;;;5.81;100.00
60832;BME280;46665;51.558;-0.448;2023-12-07T13:46:32;156882.69;;;5.77;100.00
60832;BME280;46665;51.558;-0.448;2023-12-07T13:49:17;156862.06;;;5.69;100.00
60832;BME280;46665;51.558;-0.448;2023-12-07T13:52:04;156868.50;;;5.71;100.00
60832;BME280;46665;51.558;-0.448;2023-12-07T13:54:48;156853.03;;;5.65;100.00
60832;BME280;46665;51.558;-0.448;2023-12-07T13:57:32;156843.97;;;5.61;100.00
60832;BME280;46665;51.558;-0.448;2023-12-07T14:00:16;156837.50;;;5.59;100.00
60832;BME280;46665;51.558;-0.448;2023-12-07T14:03:00;156832.34;;;5.57;100.00
60832;BME280;46665;51.558;-0.448;2023-12-07T14:05:44;156827.22;;;5.55;100.00
60832;BME280;46665;51.558;-0.448;2023-12-07T14:08:30;156807.84;;;5.47;100.00
60832;BME280;46665;51.558;-0.448;2023-12-07T14:11:18;156800.06;;;5.44;100.00
60832;BME280;46665;51.558;-0.448;2023-12-07T14:14:02;156796.22;;;5.42;100.00
60832;BME280;46665;51.558;-0.448;2023-12-07T14:16:47;156797.50;;;5.43;100.00